createdAt,value
2023-03-29T00:00:31.435Z,1.60
2023-03-29T00:02:57.914Z,1.75
2023-03-29T00:05:25.931Z,1.50
2023-03-29T00:07:54.098Z,1.55
2023-03-29T00:10:22.440Z,1.35
2023-03-29T00:12:48.845Z,1.75
2023-03-29T00:15:15.331Z,1.75
2023-03-29T00:17:41.722Z,1.95
2023-03-29T00:20:10.083Z,1.50
2023-03-29T00:22:36.779Z,1.70
2023-03-29T00:25:03.520Z,2.25
2023-03-29T00:27:29.982Z,1.80
2023-03-29T00:29:56.409Z,2.05
2023-03-29T00:32:22.875Z,1.83
2023-03-29T00:34:50.840Z,1.75
2023-03-29T00:37:18.840Z,1.88
2023-03-29T00:39:45.564Z,1.80
2023-03-29T00:42:13.158Z,1.67
2023-03-29T00:44:57.680Z,2.03
2023-03-29T00:47:44.299Z,2.08
2023-03-29T00:50:12.363Z,2.50
2023-03-29T00:52:39.617Z,1.98
2023-03-29T00:55:10.136Z,1.85
2023-03-29T00:57:38.253Z,2.40
2023-03-29T01:00:05.374Z,2.50
2023-03-29T01:02:34.685Z,2.28
2023-03-29T01:05:05.634Z,2.03
2023-03-29T01:07:35.383Z,2.10
2023-03-29T01:10:12.430Z,1.90
2023-03-29T01:12:41.842Z,1.95
2023-03-29T01:15:12.300Z,2.20
2023-03-29T01:17:39.151Z,2.30
2023-03-29T01:20:10.586Z,1.88
2023-03-29T01:22:39.914Z,2.10
2023-03-29T01:25:06.291Z,2.10
2023-03-29T01:27:32.673Z,2.63
2023-03-29T01:30:04.271Z,2.60
2023-03-29T01:32:35.323Z,2.22
2023-03-29T01:35:03.881Z,2.33
2023-03-29T01:37:30.184Z,2.55
2023-03-29T01:39:56.617Z,2.53
2023-03-29T01:42:28.714Z,2.15
2023-03-29T01:44:55.529Z,1.92
2023-03-29T01:47:21.859Z,2.65
2023-03-29T01:49:56.937Z,2.60
2023-03-29T01:52:26.115Z,2.40
2023-03-29T01:54:58.347Z,2.53
2023-03-29T01:57:26.133Z,3.30
2023-03-29T01:59:54.464Z,2.78
2023-03-29T02:02:21.416Z,3.05
2023-03-29T02:04:50.242Z,2.42
2023-03-29T02:07:18.837Z,2.85
2023-03-29T02:09:45.881Z,3.03
2023-03-29T02:12:13.467Z,2.67
2023-03-29T02:14:40.478Z,3.30
2023-03-29T02:17:16.541Z,2.95
2023-03-29T02:19:43.282Z,2.90
2023-03-29T02:22:10.311Z,3.20
2023-03-29T02:24:38.923Z,3.13
2023-03-29T02:27:05.469Z,2.75
2023-03-29T02:29:31.896Z,3.13
2023-03-29T02:32:00.164Z,2.60
2023-03-29T02:34:29.923Z,2.90
2023-03-29T02:37:00.767Z,3.08
2023-03-29T02:39:29.128Z,2.83
2023-03-29T02:41:56.112Z,2.95
2023-03-29T02:44:24.566Z,3.28
2023-03-29T02:46:53.161Z,3.60
2023-03-29T02:49:19.574Z,3.35
2023-03-29T02:51:47.339Z,2.92
2023-03-29T02:54:15.579Z,3.10
2023-03-29T02:56:43.346Z,3.28
2023-03-29T02:59:09.828Z,3.30
2023-03-29T03:01:36.769Z,3.05
2023-03-29T03:04:03.718Z,2.83
2023-03-29T03:06:30.153Z,2.88
2023-03-29T03:08:56.723Z,3.17
2023-03-29T03:11:23.887Z,2.83
2023-03-29T03:13:50.276Z,2.90
2023-03-29T03:16:17.068Z,3.15
2023-03-29T03:18:45.820Z,2.85
2023-03-29T03:21:12.229Z,3.05
2023-03-29T03:23:38.555Z,3.33
2023-03-29T03:26:05.195Z,2.72
2023-03-29T03:28:32.275Z,2.38
2023-03-29T03:30:58.931Z,2.53
2023-03-29T03:33:26.966Z,3.05
2023-03-29T03:35:57.238Z,2.40
2023-03-29T03:38:24.232Z,3.33
2023-03-29T03:40:54.960Z,3.17
2023-03-29T03:43:21.398Z,3.35
2023-03-29T03:45:47.831Z,3.15
2023-03-29T03:48:14.217Z,2.60
2023-03-29T03:50:40.721Z,3.28
2023-03-29T03:53:07.293Z,3.33
2023-03-29T03:55:34.412Z,2.90
2023-03-29T03:58:01.061Z,3.30
2023-03-29T04:00:27.460Z,2.88
2023-03-29T04:02:56.879Z,3.40
2023-03-29T04:05:23.351Z,3.70
2023-03-29T04:07:49.760Z,3.20
2023-03-29T04:10:16.423Z,2.97
2023-03-29T04:12:42.785Z,2.88
2023-03-29T04:15:10.441Z,2.95
2023-03-29T04:17:37.543Z,3.47
2023-03-29T04:20:10.249Z,3.33
2023-03-29T04:22:36.841Z,2.85
2023-03-29T04:25:03.281Z,2.92
2023-03-29T04:27:32.005Z,3.28
2023-03-29T04:29:58.532Z,3.60
2023-03-29T04:32:25.047Z,3.05
2023-03-29T04:34:51.408Z,3.70
2023-03-29T04:37:21.986Z,3.88
2023-03-29T04:39:49.256Z,3.40
2023-03-29T04:42:15.764Z,3.13
2023-03-29T04:44:43.727Z,2.95
2023-03-29T04:47:13.437Z,3.15
2023-03-29T04:49:39.862Z,3.15
2023-03-29T04:52:06.640Z,2.90
2023-03-29T04:54:33.190Z,3.10
2023-03-29T04:56:59.700Z,2.90
2023-03-29T04:59:26.227Z,3.33
2023-03-29T05:01:52.672Z,3.13
2023-03-29T05:04:19.281Z,3.60
2023-03-29T05:06:45.834Z,4.65
2023-03-29T05:09:12.210Z,3.22
2023-03-29T05:11:38.515Z,3.50
2023-03-29T05:14:07.365Z,2.83
2023-03-29T05:16:34.675Z,3.65
2023-03-29T05:19:01.304Z,3.25
2023-03-29T05:21:28.485Z,3.70
2023-03-29T05:23:55.112Z,3.50
2023-03-29T05:26:22.745Z,3.28
2023-03-29T05:28:49.979Z,2.85
2023-03-29T05:31:17.287Z,3.40
2023-03-29T05:33:43.920Z,4.13
2023-03-29T05:36:13.590Z,3.50
2023-03-29T05:38:40.837Z,3.38
2023-03-29T05:41:07.181Z,3.35
2023-03-29T05:43:33.783Z,3.25
2023-03-29T05:46:00.346Z,3.88
2023-03-29T05:48:27.380Z,3.75
2023-03-29T05:50:54.524Z,3.78
2023-03-29T05:53:21.734Z,3.42
2023-03-29T05:55:48.084Z,3.33
2023-03-29T05:58:14.553Z,3.78
2023-03-29T06:00:41.434Z,3.85
2023-03-29T06:03:19.835Z,3.65
2023-03-29T06:05:49.678Z,3.50
2023-03-29T06:08:16.611Z,3.70
2023-03-29T06:10:43.463Z,3.60
2023-03-29T06:13:09.900Z,3.83
2023-03-29T06:15:37.007Z,3.85
2023-03-29T06:18:03.817Z,3.33
2023-03-29T06:20:30.237Z,4.07
2023-03-29T06:22:56.903Z,3.58
2023-03-29T06:25:23.360Z,3.90
2023-03-29T06:27:49.655Z,4.10
2023-03-29T06:30:16.146Z,4.22
2023-03-29T06:32:42.794Z,3.88
2023-03-29T06:35:09.905Z,3.70
2023-03-29T06:37:36.834Z,3.78
2023-03-29T06:40:07.355Z,3.63
2023-03-29T06:42:33.705Z,3.80
2023-03-29T06:45:00.057Z,4.10
2023-03-29T06:47:30.873Z,4.22
2023-03-29T06:49:57.708Z,3.90
2023-03-29T06:52:24.131Z,4.55
2023-03-29T06:54:50.879Z,4.03
2023-03-29T06:57:17.737Z,4.25
2023-03-29T06:59:44.356Z,4.78
2023-03-29T07:02:12.456Z,4.25
2023-03-29T07:04:39.562Z,5.10
2023-03-29T07:07:07.774Z,4.35
2023-03-29T07:09:35.953Z,4.70
2023-03-29T07:12:02.454Z,4.13
2023-03-29T07:14:29.941Z,4.88
2023-03-29T07:16:56.394Z,4.45
2023-03-29T07:19:24.384Z,4.90
2023-03-29T07:21:51.590Z,4.40
2023-03-29T07:24:19.269Z,4.78
2023-03-29T07:27:00.115Z,4.53
2023-03-29T07:29:29.522Z,7.15
2023-03-29T07:31:56.516Z,5.65
2023-03-29T07:34:22.896Z,5.38
2023-03-29T07:36:49.225Z,5.60
2023-03-29T07:39:15.675Z,5.40
2023-03-29T07:41:42.075Z,5.43
2023-03-29T07:44:09.409Z,4.95
2023-03-29T07:46:36.281Z,5.55
2023-03-29T07:49:03.474Z,6.35
2023-03-29T07:51:30.142Z,5.47
2023-03-29T07:53:56.471Z,6.20
2023-03-29T07:56:22.982Z,6.07
2023-03-29T07:58:49.334Z,6.10
2023-03-29T08:01:18.718Z,5.65
2023-03-29T08:03:45.969Z,5.50
2023-03-29T08:06:12.502Z,6.13
2023-03-29T08:08:38.973Z,6.60
2023-03-29T08:11:09.041Z,6.68
2023-03-29T08:13:35.786Z,6.32
2023-03-29T08:16:02.116Z,6.18
2023-03-29T08:18:28.543Z,6.82
2023-03-29T08:20:55.165Z,6.75
2023-03-29T08:23:21.569Z,6.57
2023-03-29T08:25:47.959Z,6.72
2023-03-29T08:28:14.298Z,7.93
2023-03-29T08:30:41.284Z,7.43
2023-03-29T08:33:07.892Z,6.57
2023-03-29T08:35:34.528Z,7.47
2023-03-29T08:38:01.053Z,7.22
2023-03-29T08:40:29.981Z,8.23
2023-03-29T08:43:11.875Z,8.27
2023-03-29T08:45:51.129Z,8.38
2023-03-29T08:48:17.764Z,7.53
2023-03-29T08:50:47.950Z,8.40
2023-03-29T08:53:18.957Z,9.15
2023-03-29T08:55:46.078Z,9.45
2023-03-29T08:58:14.452Z,9.25
2023-03-29T09:00:49.534Z,9.05
2023-03-29T09:03:23.336Z,9.20
2023-03-29T09:05:53.234Z,8.63
2023-03-29T09:08:21.342Z,7.97
2023-03-29T09:11:09.562Z,8.52
2023-03-29T09:13:54.596Z,7.75
2023-03-29T09:16:39.503Z,8.35
2023-03-29T09:19:06.555Z,8.50
2023-03-29T09:21:33.209Z,7.45
2023-03-29T09:24:05.207Z,6.85
2023-03-29T09:26:40.055Z,7.80
2023-03-29T09:29:25.406Z,6.30
2023-03-29T09:31:52.547Z,7.70
2023-03-29T09:34:39.169Z,6.32
2023-03-29T09:37:25.860Z,5.35
2023-03-29T09:39:53.136Z,6.55
2023-03-29T09:42:20.032Z,6.75
2023-03-29T09:45:15.683Z,4.60
2023-03-29T09:47:54.632Z,6.30
2023-03-29T09:50:31.621Z,7.45
2023-03-29T09:52:58.732Z,6.85
2023-03-29T09:55:27.604Z,5.57
2023-03-29T09:57:56.020Z,6.18
2023-03-29T10:00:22.482Z,5.93
2023-03-29T10:02:57.999Z,5.60
2023-03-29T10:05:25.661Z,6.40
2023-03-29T10:07:53.695Z,5.13
2023-03-29T10:10:27.228Z,5.90
2023-03-29T10:12:56.860Z,5.53
2023-03-29T10:15:29.779Z,5.35
2023-03-29T10:18:01.178Z,5.35
2023-03-29T10:20:28.158Z,4.80
2023-03-29T10:22:56.630Z,5.30
2023-03-29T10:25:26.014Z,4.65
2023-03-29T10:27:54.468Z,4.35
2023-03-29T10:30:22.618Z,4.20
2023-03-29T10:32:54.394Z,4.82
2023-03-29T10:35:26.034Z,4.32
2023-03-29T10:37:53.357Z,4.55
2023-03-29T10:40:28.604Z,4.57
2023-03-29T10:42:58.402Z,4.40
2023-03-29T10:45:27.253Z,5.03
2023-03-29T10:47:55.642Z,5.32
2023-03-29T10:50:22.065Z,6.50
2023-03-29T10:52:50.226Z,5.97
2023-03-29T10:55:16.915Z,6.07
2023-03-29T10:57:52.744Z,6.47
2023-03-29T11:05:38.606Z,6.88
2023-03-29T11:08:04.990Z,8.15
2023-03-29T11:10:31.388Z,7.35
2023-03-29T11:13:27.163Z,5.78
2023-03-29T11:16:29.128Z,6.75
2023-03-29T11:19:07.865Z,6.75
2023-03-29T11:21:42.558Z,6.00
2023-03-29T11:24:24.222Z,6.95
2023-03-29T11:26:53.538Z,5.28
2023-03-29T11:29:23.062Z,6.88
2023-03-29T11:31:49.423Z,6.45
2023-03-29T11:34:22.082Z,7.50
2023-03-29T11:36:50.491Z,7.78
2023-03-29T11:39:16.946Z,6.93
2023-03-29T11:41:45.146Z,7.32
2023-03-29T11:44:23.787Z,7.28
2023-03-29T11:46:55.861Z,6.38
2023-03-29T11:49:25.502Z,7.35
2023-03-29T11:52:10.681Z,6.03
2023-03-29T11:54:38.276Z,5.93
2023-03-29T11:57:25.018Z,6.32
2023-03-29T11:59:54.472Z,5.70
2023-03-29T12:02:35.905Z,6.38
2023-03-29T12:05:07.513Z,5.43
2023-03-29T12:07:38.082Z,5.55
2023-03-29T12:10:21.170Z,5.88
2023-03-29T12:12:52.847Z,6.40
2023-03-29T12:15:24.824Z,5.55
2023-03-29T12:18:11.425Z,5.25
2023-03-29T12:20:40.764Z,4.70
2023-03-29T12:23:07.811Z,5.55
2023-03-29T12:25:57.219Z,4.65
2023-03-29T12:28:23.779Z,5.30
2023-03-29T12:31:16.789Z,5.70
2023-03-29T12:34:05.998Z,6.15
2023-03-29T12:36:38.182Z,5.88
2023-03-29T12:39:04.660Z,6.68
2023-03-29T12:41:35.692Z,7.00
2023-03-29T12:44:03.726Z,6.68
2023-03-29T12:46:33.778Z,7.25
2023-03-29T12:49:05.908Z,7.43
2023-03-29T12:51:33.074Z,6.75
2023-03-29T12:54:16.993Z,7.57
2023-03-29T12:56:52.429Z,6.65
2023-03-29T12:59:18.927Z,7.75
2023-03-29T13:02:20.787Z,7.63
2023-03-29T13:04:50.260Z,6.38
2023-03-29T13:07:22.738Z,7.22
2023-03-29T13:09:53.768Z,6.35
2023-03-29T13:12:20.363Z,5.72
2023-03-29T13:14:51.046Z,5.47
2023-03-29T13:17:36.112Z,5.28
2023-03-29T13:20:21.903Z,4.82
2023-03-29T13:22:56.533Z,4.20
2023-03-29T13:25:37.000Z,3.72
2023-03-29T13:28:10.442Z,3.70
2023-03-29T13:30:55.944Z,4.30
2023-03-29T13:33:43.199Z,3.30
2023-03-29T13:36:09.567Z,3.33
2023-03-29T13:38:49.688Z,3.33
2023-03-29T13:41:33.608Z,3.50
2023-03-29T13:44:00.184Z,3.63
2023-03-29T13:46:42.515Z,3.20
2023-03-29T13:49:22.982Z,3.90
2023-03-29T13:52:05.297Z,4.35
2023-03-29T13:54:50.716Z,4.03
2023-03-29T13:57:19.421Z,4.10
2023-03-29T13:59:52.135Z,4.93
2023-03-29T14:02:25.389Z,6.60
2023-03-29T14:04:52.416Z,6.22
2023-03-29T14:07:20.270Z,5.82
2023-03-29T14:09:49.833Z,5.35
2023-03-29T14:12:17.270Z,6.00
2023-03-29T14:14:56.099Z,4.68
2023-03-29T14:17:25.690Z,5.07
2023-03-29T14:19:52.141Z,4.88
2023-03-29T14:22:21.869Z,5.03
2023-03-29T14:24:52.449Z,5.40
2023-03-29T14:27:20.042Z,5.97
2023-03-29T14:29:47.618Z,5.22
2023-03-29T14:32:18.534Z,4.32
2023-03-29T14:34:48.674Z,4.93
2023-03-29T14:37:20.694Z,5.70
2023-03-29T14:39:47.255Z,5.38
2023-03-29T14:42:20.892Z,5.75
2023-03-29T14:44:47.878Z,5.40
2023-03-29T14:47:23.825Z,5.55
2023-03-29T14:49:50.504Z,5.40
2023-03-29T14:52:18.091Z,5.60
2023-03-29T14:54:46.391Z,5.32
2023-03-29T14:57:14.707Z,5.13
2023-03-29T14:59:42.620Z,4.65
2023-03-29T15:02:22.938Z,4.65
2023-03-29T15:05:05.531Z,4.25
2023-03-29T15:07:36.899Z,4.35
2023-03-29T15:10:05.574Z,4.70
2023-03-29T15:12:32.911Z,4.45
2023-03-29T15:14:59.513Z,4.95
2023-03-29T15:17:43.026Z,4.85
2023-03-29T15:20:16.292Z,4.75
2023-03-29T15:22:59.581Z,5.30
2023-03-29T15:25:37.101Z,4.45
2023-03-29T15:28:03.622Z,4.47
2023-03-29T15:30:39.521Z,4.63
2023-03-29T15:33:23.013Z,4.28
2023-03-29T15:35:51.184Z,4.65
2023-03-29T15:38:18.033Z,4.07
2023-03-29T15:40:44.671Z,3.80
2023-03-29T15:43:11.235Z,3.88
2023-03-29T15:45:37.636Z,2.05
2023-03-29T15:48:20.626Z,3.63
2023-03-29T15:50:47.746Z,3.28
2023-03-29T15:53:15.748Z,3.30
2023-03-29T15:55:44.752Z,4.25
2023-03-29T15:58:15.979Z,3.60
2023-03-29T16:00:44.487Z,2.60
2023-03-29T16:03:13.502Z,3.33
2023-03-29T16:05:40.359Z,2.55
2023-03-29T16:08:06.863Z,2.83
2023-03-29T16:10:33.217Z,2.80
2023-03-29T16:12:59.800Z,2.97
2023-03-29T16:15:27.225Z,2.28
2023-03-29T16:17:53.684Z,2.50
2023-03-29T16:20:20.541Z,2.45
2023-03-29T16:22:48.004Z,2.28
2023-03-29T16:25:16.278Z,2.58
2023-03-29T16:27:43.782Z,2.30
2023-03-29T16:30:10.783Z,2.10
2023-03-29T16:32:38.826Z,2.70
2023-03-29T16:35:19.105Z,2.58
2023-03-29T16:37:45.676Z,2.50
2023-03-29T16:40:12.524Z,2.42
2023-03-29T16:42:39.052Z,2.97
2023-03-29T16:45:06.643Z,2.45
2023-03-29T16:47:33.042Z,2.33
2023-03-29T16:49:59.622Z,2.78
2023-03-29T16:52:26.424Z,2.13
2023-03-29T16:54:53.482Z,2.53
2023-03-29T16:57:20.279Z,2.10
2023-03-29T16:59:47.795Z,2.17
2023-03-29T17:02:14.365Z,2.90
2023-03-29T17:04:40.922Z,2.45
2023-03-29T17:07:07.524Z,2.50
2023-03-29T17:09:33.976Z,2.60
2023-03-29T17:12:00.524Z,2.78
2023-03-29T17:14:26.995Z,2.70
2023-03-29T17:16:53.591Z,2.60
2023-03-29T17:19:20.018Z,3.20
2023-03-29T17:21:46.510Z,2.65
2023-03-29T17:24:12.924Z,3.58
2023-03-29T17:26:39.881Z,2.60
2023-03-29T17:29:06.273Z,2.33
2023-03-29T17:31:34.762Z,2.70
2023-03-29T17:34:01.227Z,2.40
2023-03-29T17:36:28.915Z,2.95
2023-03-29T17:38:55.591Z,2.80
2023-03-29T17:41:22.824Z,2.58
2023-03-29T17:43:50.874Z,2.88
2023-03-29T17:46:18.054Z,3.03
2023-03-29T17:48:45.943Z,2.55
2023-03-29T17:51:12.341Z,2.85
2023-03-29T17:53:38.664Z,2.90
2023-03-29T17:56:06.610Z,2.85
2023-03-29T17:58:32.974Z,2.55
2023-03-29T18:00:59.429Z,2.45
2023-03-29T18:03:25.861Z,2.80
2023-03-29T18:05:52.367Z,2.50
2023-03-29T18:08:18.921Z,2.72
2023-03-29T18:10:45.463Z,2.90
2023-03-29T18:13:13.951Z,3.08
2023-03-29T18:15:40.348Z,3.30
2023-03-29T18:18:06.897Z,3.20
2023-03-29T18:20:33.282Z,2.63
2023-03-29T18:22:59.705Z,3.63
2023-03-29T18:25:26.018Z,3.58
2023-03-29T18:27:52.385Z,3.38
2023-03-29T18:30:18.794Z,3.40
2023-03-29T18:32:45.302Z,3.30
2023-03-29T18:35:12.154Z,3.70
2023-03-29T18:37:38.716Z,3.45
2023-03-29T18:40:08.335Z,3.10
2023-03-29T18:42:34.825Z,3.38
2023-03-29T18:45:01.385Z,3.78
2023-03-29T18:47:27.848Z,3.28
2023-03-29T18:49:54.217Z,3.53
2023-03-29T18:52:20.970Z,3.63
2023-03-29T18:54:47.365Z,3.50
2023-03-29T18:57:13.802Z,3.30
2023-03-29T18:59:40.687Z,3.58
2023-03-29T19:02:07.113Z,3.83
2023-03-29T19:04:33.598Z,4.07
2023-03-29T19:07:01.414Z,2.90
2023-03-29T19:09:27.970Z,3.42
2023-03-29T19:11:54.369Z,3.70
2023-03-29T19:14:24.077Z,3.65
2023-03-29T19:16:51.354Z,3.72
2023-03-29T19:19:18.684Z,3.58
2023-03-29T19:21:47.126Z,3.40
2023-03-29T19:24:14.441Z,4.18
2023-03-29T19:26:41.142Z,3.50
2023-03-29T19:29:08.493Z,4.25
2023-03-29T19:31:37.830Z,4.30
2023-03-29T19:34:05.282Z,4.13
2023-03-29T19:36:31.744Z,3.45
2023-03-29T19:38:59.377Z,4.28
2023-03-29T19:41:26.684Z,4.28
2023-03-29T19:43:53.118Z,3.42
2023-03-29T19:46:20.375Z,4.18
2023-03-29T19:48:47.032Z,3.83
2023-03-29T19:51:13.446Z,4.63
2023-03-29T19:53:41.746Z,4.07
2023-03-29T19:56:10.701Z,4.13
2023-03-29T19:58:37.776Z,4.47
2023-03-29T20:01:04.312Z,3.92
2023-03-29T20:03:34.305Z,3.95
2023-03-29T20:06:01.273Z,4.40
2023-03-29T20:08:27.889Z,4.18
2023-03-29T20:10:58.613Z,4.35
2023-03-29T20:13:37.683Z,4.38
2023-03-29T20:16:06.728Z,4.32
2023-03-29T20:18:33.258Z,3.60
2023-03-29T20:21:01.719Z,3.67
2023-03-29T20:23:28.424Z,3.28
2023-03-29T20:25:54.737Z,3.60
2023-03-29T20:28:21.044Z,3.55
2023-03-29T20:30:51.136Z,4.57
2023-03-29T20:33:20.848Z,5.45
2023-03-29T20:35:47.960Z,4.22
2023-03-29T20:38:14.910Z,3.97
2023-03-29T20:40:41.831Z,4.20
2023-03-29T20:43:13.141Z,5.22
2023-03-29T20:45:52.208Z,4.00
2023-03-29T20:48:23.091Z,4.07
2023-03-29T20:50:50.041Z,4.50
2023-03-29T20:53:16.371Z,3.78
2023-03-29T20:55:42.788Z,3.67
2023-03-29T20:58:09.193Z,3.95
2023-03-29T21:00:35.676Z,3.92
2023-03-29T21:03:03.856Z,4.13
2023-03-29T21:05:32.129Z,3.38
2023-03-29T21:07:58.708Z,3.67
2023-03-29T21:10:25.868Z,3.63
2023-03-29T21:12:54.254Z,3.70
2023-03-29T21:15:20.847Z,3.58
2023-03-29T21:17:47.748Z,3.53
2023-03-29T21:20:14.896Z,3.58
2023-03-29T21:22:44.871Z,3.22
2023-03-29T21:25:12.482Z,2.80
2023-03-29T21:27:38.827Z,3.85
2023-03-29T21:30:05.704Z,3.40
2023-03-29T21:32:32.155Z,3.08
2023-03-29T21:34:58.532Z,3.53
2023-03-29T21:37:24.944Z,3.65
2023-03-29T21:39:51.305Z,2.80
2023-03-29T21:42:17.677Z,3.60
2023-03-29T21:44:44.399Z,3.90
2023-03-29T21:47:10.843Z,2.40
2023-03-29T21:49:37.596Z,3.15
2023-03-29T21:52:03.890Z,2.20
2023-03-29T21:54:30.229Z,2.20
2023-03-29T21:56:57.707Z,2.50
2023-03-29T21:59:24.085Z,2.20
2023-03-29T22:01:50.429Z,2.20
2023-03-29T22:04:29.189Z,2.42
2023-03-29T22:07:02.662Z,2.20
2023-03-29T22:09:29.081Z,3.13
2023-03-29T22:11:55.470Z,2.63
2023-03-29T22:14:22.046Z,2.50
2023-03-29T22:16:48.507Z,2.10
2023-03-29T22:19:14.897Z,2.60
2023-03-29T22:21:41.347Z,3.17
2023-03-29T22:24:07.787Z,2.90
2023-03-29T22:26:34.140Z,2.65
2023-03-29T22:29:00.759Z,2.97
2023-03-29T22:31:28.623Z,3.22
2023-03-29T22:33:55.671Z,2.95
2023-03-29T22:36:26.588Z,2.45
2023-03-29T22:38:53.206Z,2.75
2023-03-29T22:41:21.651Z,3.00
2023-03-29T22:43:48.227Z,3.00
2023-03-29T22:46:14.774Z,2.25
2023-03-29T22:48:41.502Z,3.08
2023-03-29T22:51:07.836Z,2.97
2023-03-29T22:53:34.482Z,2.95
2023-03-29T22:56:00.853Z,2.95
2023-03-29T22:58:29.394Z,2.70
2023-03-29T23:00:56.965Z,3.17
2023-03-29T23:03:23.791Z,2.92
2023-03-29T23:05:51.795Z,2.60
2023-03-29T23:08:18.223Z,3.20
2023-03-29T23:10:46.132Z,2.50
2023-03-29T23:13:13.562Z,2.72
2023-03-29T23:15:45.634Z,2.90
2023-03-29T23:18:22.102Z,2.72
2023-03-29T23:20:49.448Z,2.63
2023-03-29T23:23:16.469Z,2.65
2023-03-29T23:25:43.400Z,2.42
2023-03-29T23:28:09.736Z,1.95
2023-03-29T23:30:37.112Z,2.33
2023-03-29T23:33:03.473Z,2.00
2023-03-29T23:35:31.066Z,2.47
2023-03-29T23:37:58.256Z,3.17
2023-03-29T23:40:24.902Z,2.10
2023-03-29T23:42:51.276Z,2.08
2023-03-29T23:45:18.407Z,1.85
2023-03-29T23:47:45.360Z,2.00
2023-03-29T23:50:13.413Z,2.08
2023-03-29T23:52:40.766Z,2.28
2023-03-29T23:55:08.460Z,1.90
2023-03-29T23:57:35.260Z,1.83
